Time;durP1;ratioP1;P1;durP2;ratioP2;P2;SDS_P1;SDS_P2;PMS_P1;PMS_P2;Temp;Humidity;BMP_temperature;BMP_pressure;BME280_temperature;BME280_humidity;BME280_pressure;Samples;Min_cycle;Max_cycle;Signal;HPM_P1;HPM_P2
2022/06/01 00:01:55;;;;;;;6.35;4.63;;;;;;;13.17;100.00;99396.53;5042547;28;20058;-94
2022/06/01 00:04:39;;;;;;;6.72;4.68;;;;;;;13.19;100.00;99403.41;5043262;28;20036;-93
2022/06/01 00:07:25;;;;;;;4.43;3.47;;;;;;;13.07;100.00;99404.78;5055366;28;20047;-93
2022/06/01 00:10:10;;;;;;;4.93;3.15;;;;;;;13.12;100.00;99415.09;5042090;28;20094;-93
2022/06/01 00:12:54;;;;;;;7.03;2.95;;;;;;;12.98;100.00;99413.06;5040753;28;20033;-94
2022/06/01 00:15:39;;;;;;;5.28;2.97;;;;;;;13.12;100.00;99445.81;5041369;28;20131;-93
2022/06/01 00:18:23;;;;;;;4.70;2.65;;;;;;;12.98;100.00;99435.84;5050957;28;20033;-94
2022/06/01 00:21:09;;;;;;;4.18;2.40;;;;;;;12.99;100.00;99456.81;5040597;28;20380;-94
2022/06/01 00:23:54;;;;;;;3.58;2.20;;;;;;;12.91;100.00;99453.66;5038629;28;20036;-95
2022/06/01 00:26:38;;;;;;;2.30;1.92;;;;;;;12.98;100.00;99468.25;5026343;28;20052;-94
2022/06/01 00:29:22;;;;;;;2.80;1.80;;;;;;;12.71;100.00;99449.19;5043168;28;20394;-96
2022/06/01 00:32:12;;;;;;;6.28;2.08;;;;;;;12.68;100.00;99453.72;5043179;28;20376;-93
2022/06/01 00:34:59;;;;;;;2.30;1.50;;;;;;;12.63;100.00;99449.47;5029046;28;20040;-94
2022/06/01 00:37:44;;;;;;;4.53;1.60;;;;;;;12.61;100.00;99455.72;5056287;28;20052;-95
2022/06/01 00:40:29;;;;;;;1.63;1.30;;;;;;;12.58;100.00;99464.56;5042171;28;20033;-94
2022/06/01 00:43:46;;;;;;;1.40;1.13;;;;;;;12.54;100.00;99464.75;5042227;28;20040;-93
2022/06/01 00:46:31;;;;;;;3.20;1.30;;;;;;;12.47;100.00;99453.59;5036010;28;20128;-94
2022/06/01 00:49:20;;;;;;;3.47;1.30;;;;;;;12.46;100.00;99470.28;5042961;28;20056;-93
2022/06/01 00:52:05;;;;;;;2.30;1.23;;;;;;;12.41;100.00;99474.84;5055802;28;20033;-94
2022/06/01 00:54:50;;;;;;;2.97;1.63;;;;;;;12.27;100.00;99475.38;5026146;28;20392;-94
2022/06/01 00:57:34;;;;;;;5.88;1.50;;;;;;;12.35;100.00;99486.47;5041746;28;20042;-94
2022/06/01 01:00:23;;;;;;;3.28;2.08;;;;;;;12.35;100.00;99490.88;5041738;28;20094;-94
2022/06/01 01:03:10;;;;;;;2.17;0.88;;;;;;;12.36;100.00;99490.78;5036303;28;20036;-94
2022/06/01 01:06:14;;;;;;;2.30;1.20;;;;;;;12.42;100.00;99497.59;5056488;28;20437;-96
2022/06/01 01:08:59;;;;;;;2.72;0.90;;;;;;;12.31;100.00;99484.00;5056909;28;20517;-94
2022/06/01 01:11:46;;;;;;;1.05;0.50;;;;;;;12.30;100.00;99471.78;5046475;28;20043;-95
2022/06/01 01:14:34;;;;;;;2.65;0.70;;;;;;;12.31;100.00;99457.72;5040916;28;20067;-95
2022/06/01 01:17:21;;;;;;;0.95;0.82;;;;;;;12.39;100.00;99460.94;5049103;28;20028;-94
2022/06/01 01:20:06;;;;;;;1.83;0.40;;;;;;;12.36;100.00;99461.91;5042346;28;20036;-94
2022/06/01 01:22:56;;;;;;;0.82;0.60;;;;;;;12.30;100.00;99472.63;5051704;28;20028;-94
2022/06/01 01:25:41;;;;;;;1.80;0.40;;;;;;;12.26;100.00;99443.94;5051383;28;20303;-94
2022/06/01 01:28:25;;;;;;;1.40;0.90;;;;;;;12.53;100.00;99456.00;5041927;28;20047;-94
2022/06/01 01:31:19;;;;;;;2.67;0.57;;;;;;;12.50;100.00;99431.63;5044236;28;20402;-95
2022/06/01 01:34:05;;;;;;;3.15;0.40;;;;;;;12.69;100.00;99444.91;5054606;28;20040;-94
2022/06/01 01:36:54;;;;;;;2.42;0.90;;;;;;;12.71;100.00;99425.53;5045620;28;20036;-94
2022/06/01 01:39:38;;;;;;;4.50;1.20;;;;;;;12.54;100.00;99410.41;5053923;28;20040;-94
2022/06/01 01:42:24;;;;;;;1.25;0.88;;;;;;;12.62;100.00;99411.00;5044345;28;20032;-94
2022/06/01 01:45:24;;;;;;;0.82;0.50;;;;;;;12.56;100.00;99397.25;5033075;28;20044;-95
2022/06/01 01:48:09;;;;;;;0.80;0.65;;;;;;;12.44;100.00;99379.34;5040580;28;20033;-94
2022/06/01 01:50:54;;;;;;;2.83;0.70;;;;;;;12.16;100.00;99389.16;5045552;28;20036;-95
2022/06/01 01:53:39;;;;;;;0.90;0.50;;;;;;;12.44;100.00;99353.06;5045523;28;20383;-94
2022/06/01 01:57:00;;;;;;;1.23;0.65;;;;;;;12.45;100.00;99365.31;5044415;28;20036;-93
2022/06/01 02:00:04;;;;;;;0.80;0.50;;;;;;;12.52;100.00;99365.00;5058895;28;20048;-95
2022/06/01 02:02:55;;;;;;;2.20;1.30;;;;;;;12.35;100.00;99389.31;5059254;28;20606;-95
2022/06/01 02:06:04;;;;;;;6.78;1.95;;;;;;;12.15;100.00;99411.06;5050065;28;20029;-95
2022/06/01 02:09:07;;;;;;;2.45;1.75;;;;;;;12.19;100.00;99403.06;5045152;28;20437;-95
2022/06/01 02:14:57;;;;;;;3.88;1.50;;;;;;;12.16;100.00;99389.16;5059666;28;20033;-95
2022/06/01 02:17:49;;;;;;;2.05;1.08;;;;;;;12.19;100.00;99388.19;5045789;28;20418;-95
2022/06/01 02:20:44;;;;;;;2.10;1.30;;;;;;;12.23;100.00;99368.75;5044333;28;20033;-94
2022/06/01 02:23:31;;;;;;;3.47;1.23;;;;;;;12.23;100.00;99360.88;5045620;28;20422;-95
2022/06/01 02:26:18;;;;;;;0.95;0.77;;;;;;;12.41;100.00;99367.16;5048428;28;20037;-94
2022/06/01 02:29:09;;;;;;;1.45;0.90;;;;;;;12.27;100.00;99369.50;5045871;28;20060;-95
2022/06/01 02:31:57;;;;;;;2.92;1.25;;;;;;;12.32;100.00;99354.44;5051403;28;20044;-94
2022/06/01 02:34:44;;;;;;;2.00;0.70;;;;;;;12.20;100.00;99353.13;5050953;28;20086;-94
2022/06/01 02:37:30;;;;;;;0.70;0.50;;;;;;;12.27;100.00;99336.22;5059037;28;20036;-94
2022/06/01 02:40:19;;;;;;;1.85;0.57;;;;;;;12.45;100.00;99339.03;5059104;28;20039;-94
2022/06/01 02:43:03;;;;;;;5.63;1.00;;;;;;;12.46;100.00;99330.25;5043763;28;20044;-93
2022/06/01 02:45:47;;;;;;;0.50;0.40;;;;;;;12.31;100.00;99319.41;5044595;28;20040;-95
2022/06/01 02:48:32;;;;;;;1.20;0.60;;;;;;;12.21;100.00;99320.69;5045416;28;20090;-95
2022/06/01 02:51:18;;;;;;;3.22;1.00;;;;;;;11.99;100.00;99320.69;5044251;28;20124;-95
2022/06/01 02:54:03;;;;;;;6.70;3.40;;;;;;;12.19;100.00;99334.78;5044002;28;20037;-95
2022/06/01 02:56:48;;;;;;;7.15;5.15;;;;;;;12.22;100.00;99338.19;5052418;28;20438;-95
2022/06/01 02:59:33;;;;;;;5.53;4.85;;;;;;;12.41;100.00;99354.03;5044961;28;20036;-94
2022/06/01 03:02:18;;;;;;;5.53;3.15;;;;;;;11.84;100.00;99339.59;5043260;28;20039;-93
2022/06/01 03:05:04;;;;;;;2.45;1.58;;;;;;;12.02;100.00;99341.53;5050641;28;20404;-94
2022/06/01 03:07:48;;;;;;;2.63;1.23;;;;;;;12.04;100.00;99355.47;5048966;28;20036;-93
2022/06/01 03:10:33;;;;;;;2.75;0.90;;;;;;;12.09;100.00;99319.44;5057910;28;20040;-94
2022/06/01 03:13:22;;;;;;;2.05;0.70;;;;;;;12.18;100.00;99338.34;5057458;28;20070;-94
2022/06/01 03:16:07;;;;;;;1.27;1.08;;;;;;;11.95;100.00;99336.59;5047777;28;20048;-95
2022/06/01 03:18:52;;;;;;;2.22;0.90;;;;;;;11.92;100.00;99341.03;5044606;28;20045;-94
2022/06/01 03:21:36;;;;;;;1.00;0.70;;;;;;;11.90;100.00;99335.00;5058103;28;20044;-95
2022/06/01 03:24:20;;;;;;;2.42;2.20;;;;;;;11.93;100.00;99344.56;5027980;28;20051;-95
2022/06/01 03:27:05;;;;;;;1.98;1.60;;;;;;;11.93;100.00;99332.28;5044314;28;20086;-95
2022/06/01 03:29:49;;;;;;;2.08;1.08;;;;;;;11.94;100.00;99312.13;5043332;28;20456;-94
2022/06/01 03:32:34;;;;;;;1.42;1.13;;;;;;;11.89;100.00;99314.94;5043096;28;20049;-94
2022/06/01 03:35:22;;;;;;;1.63;1.38;;;;;;;12.05;100.00;99315.19;5042766;28;20062;-95
2022/06/01 03:38:07;;;;;;;1.45;1.30;;;;;;;12.08;100.00;99309.81;5044163;28;20048;-95
2022/06/01 03:40:52;;;;;;;2.33;1.48;;;;;;;12.11;100.00;99320.19;5042532;28;20105;-95
2022/06/01 03:46:52;;;;;;;1.33;1.00;;;;;;;12.03;100.00;99311.78;5033965;28;20060;-95
2022/06/01 03:49:37;;;;;;;1.20;1.05;;;;;;;11.90;100.00;99311.41;5039870;28;20045;-94
2022/06/01 03:52:22;;;;;;;1.70;1.40;;;;;;;11.85;100.00;99302.84;5047218;28;20140;-95
2022/06/01 03:55:08;;;;;;;1.45;1.33;;;;;;;11.90;100.00;99313.19;5051375;28;20032;-95
2022/06/01 03:57:52;;;;;;;1.50;1.08;;;;;;;11.96;100.00;99325.19;5043344;28;20067;-95
2022/06/01 04:00:37;;;;;;;1.13;0.73;;;;;;;11.91;100.00;99317.50;5057261;28;20117;-95
2022/06/01 04:03:21;;;;;;;1.38;0.82;;;;;;;11.81;100.00;99313.47;5043435;28;20040;-95
2022/06/01 04:06:06;;;;;;;1.55;0.52;;;;;;;11.90;100.00;99313.19;5043597;28;20041;-94
2022/06/01 04:08:50;;;;;;;1.50;0.80;;;;;;;11.89;100.00;99330.69;5041863;28;20036;-95
2022/06/01 04:11:34;;;;;;;1.15;0.55;;;;;;;11.97;100.00;99322.50;5042164;28;20040;-95
2022/06/01 04:14:19;;;;;;;2.45;0.73;;;;;;;12.08;100.00;99333.44;5046289;28;20502;-93
2022/06/01 04:17:04;;;;;;;0.75;0.68;;;;;;;12.03;100.00;99322.28;5042206;28;20041;-93
2022/06/01 04:19:48;;;;;;;1.33;0.77;;;;;;;12.26;100.00;99315.28;5047409;28;20126;-93
2022/06/01 04:22:34;;;;;;;2.25;1.10;;;;;;;13.06;100.00;99333.84;5042132;28;20529;-95
2022/06/01 04:25:18;;;;;;;1.50;1.20;;;;;;;13.67;100.00;99318.03;5032341;28;20032;-94
2022/06/01 04:28:03;;;;;;;2.25;1.13;;;;;;;13.66;100.00;99311.06;5042691;28;20040;-96
2022/06/01 04:30:48;;;;;;;2.05;0.88;;;;;;;13.90;100.00;99327.50;5042988;28;21759;-95
2022/06/01 04:33:33;;;;;;;1.63;1.33;;;;;;;13.87;100.00;99309.22;5040298;28;20040;-96
2022/06/01 04:36:18;;;;;;;4.75;3.42;;;;;;;14.53;100.00;99328.97;5057638;28;20039;-94
2022/06/01 04:39:03;;;;;;;9.95;5.22;;;;;;;14.40;100.00;99319.00;5043946;28;20403;-94
2022/06/01 04:41:48;;;;;;;7.68;4.95;;;;;;;14.45;100.00;99334.59;5049350;28;20036;-96
2022/06/01 04:44:33;;;;;;;7.22;3.80;;;;;;;14.60;100.00;99333.88;5043835;28;20140;-95
2022/06/01 04:47:18;;;;;;;4.65;3.88;;;;;;;15.04;100.00;99324.66;5043549;28;20040;-94
2022/06/01 04:50:05;;;;;;;3.70;2.85;;;;;;;15.16;100.00;99329.31;5042402;28;20041;-95
2022/06/01 04:52:49;;;;;;;2.10;1.70;;;;;;;15.49;100.00;99331.16;5041781;28;20923;-94
2022/06/01 04:55:34;;;;;;;1.48;1.02;;;;;;;15.54;100.00;99345.81;5043257;28;20040;-95
2022/06/01 04:58:19;;;;;;;2.30;1.10;;;;;;;15.76;100.00;99348.19;5044826;28;20036;-94
2022/06/01 05:01:04;;;;;;;1.23;0.70;;;;;;;16.28;100.00;99342.72;5042101;28;20044;-95
2022/06/01 05:03:49;;;;;;;1.20;0.52;;;;;;;16.21;100.00;99341.31;5024881;28;20063;-94
2022/06/01 05:06:36;;;;;;;2.08;0.30;;;;;;;16.53;100.00;99349.25;5040626;28;20170;-95
2022/06/01 05:09:20;;;;;;;1.17;0.47;;;;;;;16.31;100.00;99329.31;5027952;28;20259;-93
2022/06/01 05:12:05;;;;;;;0.60;0.30;;;;;;;16.45;100.00;99335.63;5057137;28;20037;-93
2022/06/01 05:14:50;;;;;;;0.82;0.50;;;;;;;17.26;100.00;99344.16;5043142;28;20125;-93
2022/06/01 05:17:34;;;;;;;0.45;0.40;;;;;;;16.98;100.00;99327.25;5042984;28;20052;-93
2022/06/01 05:20:19;;;;;;;0.40;0.40;;;;;;;17.33;100.00;99350.78;5039445;28;20032;-93
2022/06/01 05:23:04;;;;;;;2.60;0.40;;;;;;;17.38;100.00;99338.09;5028985;28;20086;-94
2022/06/01 05:25:50;;;;;;;1.02;0.22;;;;;;;17.74;100.00;99355.31;5039801;28;20707;-94
2022/06/01 05:28:35;;;;;;;2.05;0.60;;;;;;;17.35;100.00;99345.38;5041898;28;20037;-94
2022/06/01 05:31:19;;;;;;;0.57;0.40;;;;;;;16.81;100.00;99341.47;5057222;28;20056;-94
2022/06/01 05:34:04;;;;;;;0.30;0.13;;;;;;;17.25;100.00;99348.56;5027048;28;20056;-93
2022/06/01 05:36:48;;;;;;;0.40;0.20;;;;;;;17.77;100.00;99336.63;5047078;28;20036;-94
2022/06/01 05:39:33;;;;;;;1.33;0.38;;;;;;;17.29;100.00;99355.41;5042235;28;20036;-94
2022/06/01 05:42:18;;;;;;;2.60;0.20;;;;;;;18.10;100.00;99360.19;5042631;28;20102;-94
2022/06/01 05:45:04;;;;;;;1.17;0.47;;;;;;;17.50;100.00;99340.00;5043744;28;20032;-93
2022/06/01 05:47:49;;;;;;;3.03;0.82;;;;;;;17.45;100.00;99352.69;5042489;28;20060;-94
2022/06/01 05:50:34;;;;;;;2.05;0.80;;;;;;;17.67;100.00;99361.97;5042734;28;20055;-93
2022/06/01 05:53:18;;;;;;;2.70;1.45;;;;;;;17.28;100.00;99360.78;5057806;28;20098;-94
2022/06/01 05:56:03;;;;;;;1.48;0.50;;;;;;;17.86;100.00;99353.75;5042098;28;20051;-93
2022/06/01 05:58:50;;;;;;;0.50;0.28;;;;;;;18.21;100.00;99364.81;5056398;28;20045;-93
2022/06/01 06:01:34;;;;;;;0.95;0.40;;;;;;;18.36;100.00;99379.75;5042142;28;20064;-92
2022/06/01 06:04:18;;;;;;;0.55;0.30;;;;;;;18.45;100.00;99368.53;5041730;28;20042;-94
2022/06/01 06:07:03;;;;;;;1.25;0.47;;;;;;;18.42;100.00;99375.81;5037695;28;20041;-94
2022/06/01 06:09:47;;;;;;;2.33;0.65;;;;;;;18.90;100.00;99381.56;5042670;28;20041;-94
2022/06/01 06:12:32;;;;;;;0.80;0.30;;;;;;;18.42;100.00;99378.47;5040887;28;20044;-93
2022/06/01 06:15:17;;;;;;;0.93;0.30;;;;;;;18.48;100.00;99385.19;5057062;28;20037;-94
2022/06/01 06:18:02;;;;;;;1.48;0.15;;;;;;;19.14;100.00;99387.03;5026411;28;20415;-94
2022/06/01 06:20:47;;;;;;;0.40;0.10;;;;;;;18.63;100.00;99393.00;5060532;28;20040;-92
2022/06/01 06:23:33;;;;;;;0.45;0.30;;;;;;;19.28;100.00;99415.34;5046754;28;20445;-93
2022/06/01 06:26:19;;;;;;;0.40;0.17;;;;;;;19.53;100.00;99388.81;5044901;28;20086;-93
2022/06/01 06:29:08;;;;;;;0.93;0.28;;;;;;;19.96;100.00;99387.69;5043520;28;20048;-93
2022/06/01 06:31:52;;;;;;;0.35;0.20;;;;;;;19.97;100.00;99398.19;5029254;28;20045;-93
2022/06/01 06:34:38;;;;;;;3.95;0.25;;;;;;;19.29;100.00;99401.09;5043300;28;20040;-92
2022/06/01 06:37:23;;;;;;;0.52;0.20;;;;;;;19.91;100.00;99388.00;5043598;28;20055;-93
2022/06/01 06:40:08;;;;;;;0.60;0.30;;;;;;;19.43;100.00;99394.84;5052289;28;20033;-93
2022/06/01 06:42:53;;;;;;;0.68;0.10;;;;;;;20.21;100.00;99400.91;5053650;28;20062;-93
2022/06/01 06:45:38;;;;;;;0.57;0.20;;;;;;;19.52;100.00;99408.34;5046683;28;20045;-93
2022/06/01 06:48:22;;;;;;;0.80;0.20;;;;;;;19.45;100.00;99399.09;5045964;28;20922;-93
2022/06/01 06:51:07;;;;;;;0.68;0.40;;;;;;;20.20;100.00;99399.22;5044763;28;20153;-93
2022/06/01 06:53:51;;;;;;;0.20;0.20;;;;;;;21.41;100.00;99395.66;5042648;28;20163;-93
2022/06/01 06:56:36;;;;;;;1.33;0.32;;;;;;;20.81;100.00;99403.75;5045447;28;20052;-92
2022/06/01 06:59:20;;;;;;;0.40;0.30;;;;;;;20.72;100.00;99391.97;5044005;28;20426;-93
2022/06/01 07:02:05;;;;;;;0.20;0.20;;;;;;;21.32;100.00;99395.47;5046465;28;20105;-94
2022/06/01 07:04:50;;;;;;;0.52;0.30;;;;;;;20.31;100.00;99396.66;5041978;28;20032;-94
2022/06/01 07:07:35;;;;;;;0.65;0.30;;;;;;;20.89;100.00;99425.31;5041652;28;20039;-94
2022/06/01 07:10:20;;;;;;;0.70;0.50;;;;;;;20.43;100.00;99412.69;5035065;28;20406;-93
2022/06/01 07:13:05;;;;;;;0.60;0.50;;;;;;;21.67;100.00;99424.78;5046961;28;20047;-93
2022/06/01 07:16:02;;;;;;;2.67;0.32;;;;;;;21.47;100.00;99405.84;5045639;28;20368;-94
2022/06/01 07:18:49;;;;;;;0.65;0.28;;;;;;;22.25;100.00;99411.41;5041540;28;20035;-94
2022/06/01 07:21:37;;;;;;;1.05;0.22;;;;;;;21.85;100.00;99425.19;5044702;28;20036;-93
2022/06/01 07:24:22;;;;;;;0.95;0.30;;;;;;;21.97;100.00;99400.25;5044857;28;20422;-93
2022/06/01 07:27:06;;;;;;;1.17;0.30;;;;;;;22.21;100.00;99413.47;5044588;28;20486;-93
2022/06/01 07:29:51;;;;;;;0.80;0.32;;;;;;;22.24;100.00;99415.91;5045437;28;20040;-93
2022/06/01 07:32:35;;;;;;;0.50;0.30;;;;;;;23.02;100.00;99404.25;5045530;28;20052;-93
2022/06/01 07:35:20;;;;;;;1.63;0.55;;;;;;;23.28;100.00;99406.56;5045601;28;20039;-93
2022/06/01 07:44:16;;;;;;;0.50;0.20;;;;;;;22.13;100.00;99405.19;5048373;28;20184;-93
2022/06/01 07:47:01;;;;;;;0.80;0.30;;;;;;;22.47;100.00;99408.72;5045553;28;20037;-93
2022/06/01 07:49:46;;;;;;;0.73;0.45;;;;;;;22.66;95.32;99416.09;5057137;28;20037;-93
2022/06/01 07:52:30;;;;;;;1.13;0.47;;;;;;;22.87;92.83;99398.31;5044015;28;20036;-93
2022/06/01 07:55:15;;;;;;;2.47;0.60;;;;;;;23.22;89.76;99421.28;5043976;28;20489;-93
2022/06/01 07:58:00;;;;;;;0.77;0.47;;;;;;;22.89;82.87;99422.22;5030005;28;20070;-93
2022/06/01 08:00:45;;;;;;;1.33;0.60;;;;;;;23.86;79.31;99416.81;5044575;28;20039;-94
2022/06/01 08:03:30;;;;;;;1.75;0.60;;;;;;;24.00;80.17;99421.81;5044734;28;20095;-93
2022/06/01 08:06:14;;;;;;;0.73;0.50;;;;;;;23.64;81.68;99436.50;5040357;28;20047;-94
2022/06/01 08:08:59;;;;;;;1.25;0.45;;;;;;;23.21;78.26;99413.41;5043708;28;20032;-94
2022/06/01 08:14:57;;;;;;;2.47;0.60;;;;;;;23.58;78.73;99418.31;5017850;28;21208;-93
2022/06/01 08:17:44;;;;;;;1.27;0.80;;;;;;;22.89;79.49;99432.91;5058970;28;20044;-94
2022/06/01 08:20:29;;;;;;;2.33;0.80;;;;;;;23.92;79.87;99422.47;5044391;28;20411;-94
2022/06/01 08:23:14;;;;;;;2.75;1.27;;;;;;;23.73;81.25;99438.41;5044755;28;20040;-93
2022/06/01 08:25:59;;;;;;;2.22;0.80;;;;;;;22.80;76.18;99434.50;5049227;28;20028;-94
2022/06/01 08:28:43;;;;;;;1.70;0.90;;;;;;;23.19;77.11;99444.72;5043206;28;20033;-93
2022/06/01 08:31:30;;;;;;;1.67;0.77;;;;;;;22.71;77.67;99437.91;5043433;28;20032;-94
2022/06/01 08:34:16;;;;;;;1.67;0.75;;;;;;;23.78;76.47;99441.53;5049598;28;20755;-93
2022/06/01 08:37:01;;;;;;;2.05;0.90;;;;;;;22.22;75.91;99435.66;5043309;28;20037;-93
2022/06/01 08:39:45;;;;;;;1.42;0.68;;;;;;;23.30;76.30;99432.19;5042019;28;20105;-94
2022/06/01 08:42:31;;;;;;;1.67;0.82;;;;;;;23.22;75.02;99444.47;5026842;28;20048;-92
2022/06/01 08:45:17;;;;;;;2.47;0.60;;;;;;;23.50;74.92;99438.50;5029153;28;20059;-92
2022/06/01 08:48:03;;;;;;;0.63;0.40;;;;;;;22.74;76.13;99450.16;5043180;28;20037;-93
2022/06/01 08:50:48;;;;;;;1.25;0.60;;;;;;;22.86;73.81;99450.00;5028805;28;20044;-93
2022/06/01 08:53:34;;;;;;;1.40;0.70;;;;;;;23.13;72.91;99445.22;5042206;28;20036;-94
2022/06/01 08:56:43;;;;;;;3.67;0.80;;;;;;;23.59;74.98;99460.91;5029185;28;20032;-93
2022/06/01 08:59:33;;;;;;;0.85;0.63;;;;;;;22.87;70.08;99457.03;5056443;28;20094;-93
2022/06/01 09:02:34;;;;;;;1.10;0.77;;;;;;;22.77;72.80;99465.94;5053408;28;20048;-93
2022/06/01 09:05:34;;;;;;;1.10;0.60;;;;;;;23.16;73.24;99459.16;5038705;28;20045;-93
2022/06/01 09:08:43;;;;;;;1.67;0.82;;;;;;;23.53;71.41;99464.97;5057767;28;20044;-93
2022/06/01 09:11:34;;;;;;;0.38;0.35;;;;;;;23.74;70.26;99459.66;5055394;28;20036;-93
2022/06/01 09:14:34;;;;;;;1.67;0.80;;;;;;;23.17;69.43;99460.88;5025695;28;20256;-92
2022/06/01 09:17:19;;;;;;;2.25;0.50;;;;;;;23.04;71.21;99469.06;5043486;28;20099;-92
2022/06/01 09:23:15;;;;;;;2.22;1.05;;;;;;;22.89;68.56;99464.94;5057162;28;20544;-93
2022/06/01 09:26:00;;;;;;;1.88;0.80;;;;;;;24.60;66.06;99452.22;5043770;28;20063;-93
2022/06/01 09:28:45;;;;;;;2.33;0.93;;;;;;;23.83;66.29;99465.22;5041673;28;20838;-95
2022/06/01 09:31:37;;;;;;;1.50;1.00;;;;;;;23.63;65.50;99480.25;5041252;28;20032;-93
2022/06/01 09:34:32;;;;;;;0.98;0.40;;;;;;;24.09;65.65;99463.81;5042100;28;20097;-93
2022/06/01 09:37:27;;;;;;;1.45;0.73;;;;;;;24.02;65.62;99465.31;5042720;28;20377;-94
2022/06/01 09:40:21;;;;;;;1.73;0.50;;;;;;;23.61;67.84;99461.66;5041043;28;20059;-94
2022/06/01 09:43:06;;;;;;;2.05;0.70;;;;;;;23.51;61.67;99474.09;5039567;28;20044;-94
2022/06/01 09:45:53;;;;;;;1.90;0.35;;;;;;;23.94;67.37;99481.16;5028205;28;20052;-93
2022/06/01 09:48:45;;;;;;;1.60;0.60;;;;;;;24.12;66.37;99479.59;5040340;28;20063;-93
2022/06/01 09:51:37;;;;;;;;;;;;;;;24.52;59.32;99489.53;5047341;28;20040;-95
2022/06/01 09:54:21;;;;;;;2.65;0.50;;;;;;;24.91;61.16;99482.44;5027628;28;19920;-92
2022/06/01 09:57:38;;;;;;;1.88;0.50;;;;;;;24.24;57.39;99483.88;5044880;28;20040;-93
2022/06/01 10:06:58;;;;;;;1.25;0.57;;;;;;;24.83;55.19;99479.63;5059980;28;20392;-93
2022/06/01 10:09:50;;;;;;;1.55;0.30;;;;;;;24.39;53.44;99479.00;5077657;28;20400;-92
2022/06/01 10:12:44;;;;;;;0.50;0.20;;;;;;;24.07;51.91;99491.66;5068113;28;20041;-93
2022/06/01 10:15:40;;;;;;;4.35;0.50;;;;;;;22.90;55.39;99482.63;5054160;28;20044;-93
2022/06/01 10:18:30;;;;;;;1.63;0.52;;;;;;;23.40;54.92;99472.34;5061268;28;20045;-94
2022/06/01 10:21:20;;;;;;;0.90;0.40;;;;;;;24.12;54.43;99473.41;5049151;28;20117;-93
2022/06/01 10:24:11;;;;;;;0.60;0.32;;;;;;;24.71;53.21;99464.66;5060160;28;20051;-92
2022/06/01 10:26:59;;;;;;;2.10;0.70;;;;;;;23.75;50.67;99479.22;5055443;28;20402;-93
2022/06/01 10:29:50;;;;;;;1.00;0.50;;;;;;;23.14;54.59;99463.81;5043924;28;20124;-93
2022/06/01 10:32:48;;;;;;;2.65;0.40;;;;;;;23.51;51.52;99480.28;5042289;28;20041;-93
2022/06/01 10:35:56;;;;;;;2.83;0.45;;;;;;;24.89;51.41;99456.78;5042491;28;20051;-92
2022/06/01 10:38:56;;;;;;;0.93;0.50;;;;;;;24.27;53.30;99454.16;5044414;28;20041;-93
2022/06/01 10:41:55;;;;;;;0.60;0.20;;;;;;;24.37;54.18;99470.25;5055603;28;20047;-92
2022/06/01 10:44:42;;;;;;;2.08;0.38;;;;;;;25.22;47.60;99473.50;5043366;28;20040;-93
2022/06/01 10:48:00;;;;;;;0.63;0.32;;;;;;;24.46;47.13;99476.69;5034813;28;20056;-93
2022/06/01 10:50:53;;;;;;;0.57;0.20;;;;;;;25.67;47.80;99473.75;5029434;28;20045;-92
2022/06/01 10:53:51;;;;;;;2.15;0.30;;;;;;;25.26;44.78;99448.97;5030928;28;20049;-92
2022/06/01 10:56:35;;;;;;;1.73;0.32;;;;;;;25.71;45.45;99477.88;5035691;28;20056;-92
2022/06/01 10:59:19;;;;;;;0.65;0.30;;;;;;;24.39;40.19;99465.63;5041811;28;20094;-94
2022/06/01 11:02:07;;;;;;;3.22;0.52;;;;;;;24.88;42.88;99471.16;5042024;28;20052;-93
2022/06/01 11:05:13;;;;;;;5.00;0.52;;;;;;;24.85;45.58;99474.97;5040132;28;20048;-94
2022/06/01 11:08:15;;;;;;;1.25;0.30;;;;;;;24.28;43.21;99487.16;5058184;28;20044;-93
2022/06/01 11:11:18;;;;;;;1.25;0.40;;;;;;;23.37;44.10;99483.28;5043242;28;20087;-93
2022/06/01 11:14:26;;;;;;;1.02;0.10;;;;;;;23.09;44.84;99488.22;5057830;28;20090;-92
2022/06/01 11:17:28;;;;;;;1.55;0.28;;;;;;;22.69;46.29;99487.91;5026325;28;20376;-93
2022/06/01 11:20:33;;;;;;;0.30;0.20;;;;;;;22.95;47.66;99495.66;5029718;28;20109;-93
2022/06/01 11:23:49;;;;;;;2.70;0.30;;;;;;;22.31;48.62;99494.47;5041861;28;20056;-93
2022/06/01 11:27:04;;;;;;;1.35;0.30;;;;;;;21.56;51.02;99504.69;5056349;28;20062;-92
2022/06/01 11:30:06;;;;;;;2.42;0.47;;;;;;;21.39;50.71;99516.63;5012257;28;20066;-93
2022/06/01 11:33:01;;;;;;;1.10;0.30;;;;;;;20.80;50.72;99509.38;5028338;28;20652;-92
2022/06/01 11:35:54;;;;;;;0.65;0.35;;;;;;;21.07;53.56;99518.97;5044704;28;20032;-93
2022/06/01 11:38:47;;;;;;;5.72;0.50;;;;;;;20.40;55.16;99514.81;5046155;28;20045;-92
2022/06/01 11:41:35;;;;;;;0.65;0.50;;;;;;;20.13;55.09;99514.94;5056436;28;20028;-92
2022/06/01 11:44:40;;;;;;;0.70;0.30;;;;;;;20.39;56.88;99536.19;5046387;28;20041;-93
2022/06/01 11:47:30;;;;;;;4.70;1.30;;;;;;;19.11;64.05;99530.59;5044750;28;20062;-92
2022/06/01 11:50:25;;;;;;;2.60;0.50;;;;;;;18.25;67.35;99545.69;5045196;28;20036;-92
2022/06/01 11:53:12;;;;;;;1.92;0.50;;;;;;;17.70;71.51;99518.03;5027183;28;20130;-93
2022/06/01 11:56:13;;;;;;;0.70;0.60;;;;;;;18.23;72.16;99537.81;5043894;28;20877;-92
2022/06/01 11:59:36;;;;;;;4.03;1.08;;;;;;;17.92;71.27;99544.13;5042983;28;20044;-92
2022/06/01 12:02:42;;;;;;;5.43;1.67;;;;;;;18.00;73.10;99525.97;5025670;28;20106;-93
2022/06/01 12:05:32;;;;;;;5.72;2.13;;;;;;;17.85;74.76;99551.59;5041944;28;20028;-91
2022/06/01 12:08:23;;;;;;;5.38;2.45;;;;;;;17.93;74.56;99548.47;5057350;28;20036;-92
2022/06/01 12:11:14;;;;;;;7.18;3.15;;;;;;;17.85;74.90;99542.78;5042953;28;20037;-93
2022/06/01 12:13:58;;;;;;;7.50;3.80;;;;;;;17.76;78.14;99541.50;5042820;28;20043;-93
2022/06/01 12:16:43;;;;;;;12.73;3.63;;;;;;;18.04;78.01;99524.00;5042383;28;20129;-92
2022/06/01 12:19:29;;;;;;;2.28;1.50;;;;;;;18.13;76.74;99534.03;5042700;28;20079;-93
2022/06/01 12:28:58;;;;;;;0.65;0.43;;;;;;;20.98;64.82;99515.16;5057846;28;20036;-92
2022/06/01 12:32:07;;;;;;;1.38;0.60;;;;;;;20.45;63.49;99525.97;5040012;28;20106;-92
2022/06/01 12:34:59;;;;;;;1.40;1.05;;;;;;;20.51;65.52;99533.56;5069082;28;20398;-92
2022/06/01 12:37:50;;;;;;;2.95;0.68;;;;;;;20.94;61.87;99517.19;5048991;28;20390;-92
2022/06/01 12:40:36;;;;;;;0.50;0.40;;;;;;;21.22;63.33;99525.81;5042050;28;20045;-92
2022/06/01 12:43:21;;;;;;;2.20;0.50;;;;;;;21.89;61.18;99518.13;5042201;28;20044;-92
2022/06/01 12:46:25;;;;;;;2.15;0.77;;;;;;;22.19;60.03;99522.09;5043429;28;20406;-93
2022/06/01 12:49:32;;;;;;;1.45;0.60;;;;;;;22.92;58.76;99525.25;5043268;28;20036;-93
2022/06/01 12:52:23;;;;;;;4.13;1.17;;;;;;;22.49;56.96;99520.66;5056813;28;20037;-92
2022/06/01 12:55:12;;;;;;;0.70;0.45;;;;;;;22.28;55.29;99502.69;5057459;28;20032;-93
2022/06/01 12:57:58;;;;;;;0.75;0.43;;;;;;;22.43;57.54;99506.00;5041869;28;20036;-92
2022/06/01 13:00:53;;;;;;;0.75;0.40;;;;;;;22.59;54.56;99494.97;5053599;28;20049;-92
2022/06/01 13:03:52;;;;;;;0.95;0.52;;;;;;;22.74;54.49;99484.84;5047060;28;20037;-92
2022/06/01 13:06:39;;;;;;;0.70;0.63;;;;;;;22.75;55.03;99476.75;5025409;28;20722;-92
2022/06/01 13:09:29;;;;;;;1.13;0.52;;;;;;;23.37;54.71;99490.41;5042031;28;20037;-92
2022/06/01 13:12:17;;;;;;;1.60;0.43;;;;;;;22.99;52.95;99489.09;5054689;28;20041;-93
2022/06/01 13:15:17;;;;;;;0.68;0.50;;;;;;;22.49;53.64;99491.31;5049871;28;20037;-92
2022/06/01 13:18:05;;;;;;;1.25;0.52;;;;;;;22.54;54.97;99487.31;5041625;28;20044;-92
2022/06/01 13:21:00;;;;;;;1.40;0.30;;;;;;;22.61;52.58;99476.97;5041568;28;20040;-93
2022/06/01 13:24:01;;;;;;;2.15;0.50;;;;;;;22.83;54.94;99473.44;5049247;28;20102;-92
2022/06/01 13:26:50;;;;;;;1.50;0.50;;;;;;;22.86;53.48;99467.84;5042280;28;20037;-92
2022/06/01 13:29:39;;;;;;;2.83;0.90;;;;;;;22.56;53.19;99466.69;5046666;28;20048;-91
2022/06/01 13:32:31;;;;;;;1.15;0.38;;;;;;;22.31;54.52;99458.94;5060019;28;20454;-93
2022/06/01 13:35:19;;;;;;;;;;;;;;;22.47;53.35;99472.75;5050974;28;20033;-92
2022/06/01 13:38:16;;;;;;;0.82;0.60;;;;;;;22.80;54.36;99471.03;5050576;28;20007;-93
2022/06/01 13:41:08;;;;;;;1.88;0.63;;;;;;;22.39;52.57;99451.16;5043984;28;20032;-92
2022/06/01 13:43:52;;;;;;;1.70;0.55;;;;;;;22.48;54.20;99462.94;5045830;28;20517;-92